createdAt,value
2017-09-11T00:01:33.799Z,98322.38
2017-09-11T00:04:35.105Z,98325.23
2017-09-11T00:07:36.370Z,98312.31
2017-09-11T00:10:38.382Z,98315.52
2017-09-11T00:13:39.637Z,98328.69
2017-09-11T00:16:40.922Z,98311.39
2017-09-11T00:19:42.192Z,98309.23
2017-09-11T00:22:44.198Z,98294.73
2017-09-11T00:25:45.469Z,98286.45
2017-09-11T00:28:46.750Z,98287.53
2017-09-11T00:31:48.869Z,98298.03
2017-09-11T00:34:50.186Z,98285.97
2017-09-11T00:37:51.680Z,98272.30
2017-09-11T00:40:52.950Z,98272.44
2017-09-11T00:43:54.281Z,98268.48
2017-09-11T00:46:55.572Z,98260.98
2017-09-11T00:49:57.638Z,98284.11
2017-09-11T00:52:59.650Z,98266.08
2017-09-11T00:56:00.963Z,98268.12
2017-09-11T00:59:02.419Z,98264.88
2017-09-11T01:02:03.674Z,98269.26
2017-09-11T01:05:04.970Z,98266.92
2017-09-11T01:08:06.258Z,98259.75
2017-09-11T01:11:07.566Z,98275.83
2017-09-11T01:14:08.830Z,98266.92
2017-09-11T01:17:10.098Z,98263.02
2017-09-11T01:20:11.421Z,98251.59
2017-09-11T01:23:12.758Z,98264.93
2017-09-11T01:26:14.101Z,98273.33
2017-09-11T01:29:15.406Z,98270.43
2017-09-11T01:32:16.725Z,98269.64
2017-09-11T01:35:17.958Z,98259.61
2017-09-11T01:38:19.241Z,98258.75
2017-09-11T01:41:20.522Z,98257.85
2017-09-11T01:44:21.802Z,98261.25
2017-09-11T01:47:23.838Z,98266.96
2017-09-11T01:50:25.152Z,98251.26
2017-09-11T01:53:26.625Z,98244.65
2017-09-11T01:56:27.910Z,98243.27
2017-09-11T01:59:29.966Z,98241.33
2017-09-11T02:02:31.194Z,98236.66
2017-09-11T02:05:32.466Z,98238.59
2017-09-11T02:08:33.726Z,98225.41
2017-09-11T02:11:35.774Z,98227.61
2017-09-11T02:14:36.995Z,98215.22
2017-09-11T02:17:38.250Z,98211.99
2017-09-11T02:20:39.558Z,98213.11
2017-09-11T02:23:40.877Z,98208.20
2017-09-11T02:26:42.312Z,98198.96
2017-09-11T02:29:43.579Z,98204.39
2017-09-11T02:32:45.673Z,98208.47
2017-09-11T02:35:46.985Z,98204.02
2017-09-11T02:38:48.246Z,98195.98
2017-09-11T02:41:50.262Z,98198.32
2017-09-11T02:44:51.554Z,98181.55
2017-09-11T02:47:52.826Z,98182.61
2017-09-11T02:50:54.827Z,98172.86
2017-09-11T02:53:56.481Z,98175.67
2017-09-11T02:56:57.746Z,98175.45
2017-09-11T02:59:59.222Z,98180.48
2017-09-11T03:03:00.494Z,98163.25
2017-09-11T03:06:02.522Z,98163.50
2017-09-11T03:09:04.562Z,98165.00
2017-09-11T03:12:05.850Z,98154.90
2017-09-11T03:15:07.434Z,98163.69
2017-09-11T03:18:09.480Z,98154.84
2017-09-11T03:21:10.782Z,98164.28
2017-09-11T03:24:12.066Z,98169.69
2017-09-11T03:27:13.359Z,98168.12
2017-09-11T03:30:14.588Z,98167.20
2017-09-11T03:33:16.610Z,98162.70
2017-09-11T03:36:17.867Z,98163.10
2017-09-11T03:39:19.213Z,98166.30
2017-09-11T03:42:20.473Z,98158.00
2017-09-11T03:45:21.754Z,98162.48
2017-09-11T03:48:23.150Z,98173.39
2017-09-11T03:51:24.382Z,98168.80
2017-09-11T03:54:25.906Z,98160.73
2017-09-11T03:57:27.883Z,98167.32
2017-09-11T04:00:29.174Z,98178.22
2017-09-11T04:03:30.465Z,98181.22
2017-09-11T04:06:31.820Z,98177.33
2017-09-11T04:09:33.066Z,98180.67
2017-09-11T04:12:34.374Z,98171.80
2017-09-11T04:15:35.634Z,98172.52
2017-09-11T04:18:36.908Z,98185.97
2017-09-11T04:21:38.245Z,98183.66
2017-09-11T04:24:40.230Z,98186.39
2017-09-11T04:27:41.500Z,98195.94
2017-09-11T04:30:42.738Z,98189.40
2017-09-11T04:33:43.995Z,98191.60
2017-09-11T04:36:45.298Z,98184.99
2017-09-11T04:39:47.325Z,98192.83
2017-09-11T04:42:48.642Z,98179.36
2017-09-11T04:45:49.962Z,98169.38
2017-09-11T04:48:52.029Z,98174.53
2017-09-11T04:51:54.003Z,98166.52
2017-09-11T04:54:56.022Z,98169.86
2017-09-11T04:57:57.273Z,98170.55
2017-09-11T05:00:58.598Z,98172.63
2017-09-11T05:03:59.854Z,98159.64
2017-09-11T05:07:01.213Z,98161.84
2017-09-11T05:10:02.655Z,98154.70
2017-09-11T05:13:03.886Z,98156.38
2017-09-11T05:16:05.357Z,98159.64
2017-09-11T05:19:06.614Z,98151.88
2017-09-11T05:22:07.882Z,98162.13
2017-09-11T05:25:09.130Z,98163.35
2017-09-11T05:28:10.403Z,98158.36
2017-09-11T05:31:12.400Z,98160.72
2017-09-11T05:34:13.711Z,98167.16
2017-09-11T05:37:14.992Z,98165.49
2017-09-11T05:40:16.301Z,98173.01
2017-09-11T05:43:17.607Z,98170.43
2017-09-11T05:46:18.861Z,98177.48
2017-09-11T05:49:20.107Z,98177.97
2017-09-11T05:52:21.383Z,98185.95
2017-09-11T05:55:22.902Z,98181.80
2017-09-11T05:58:24.174Z,98180.47
2017-09-11T06:01:25.502Z,98187.37
2017-09-11T06:04:26.770Z,98191.23
2017-09-11T06:07:28.030Z,98187.27
2017-09-11T06:10:29.296Z,98187.91
2017-09-11T06:13:30.602Z,98182.80
2017-09-11T06:16:31.898Z,98181.95
2017-09-11T06:19:33.170Z,98196.98
2017-09-11T06:22:34.439Z,98197.45
2017-09-11T06:25:35.739Z,98189.45
2017-09-11T06:28:37.001Z,98200.78
2017-09-11T06:31:39.066Z,98191.18
2017-09-11T06:34:41.083Z,98196.72
2017-09-11T06:37:42.698Z,98202.34
2017-09-11T06:40:44.671Z,98208.89
2017-09-11T06:43:45.932Z,98202.00
2017-09-11T06:46:47.182Z,98193.04
2017-09-11T06:49:48.498Z,98196.27
2017-09-11T06:52:50.515Z,98200.53
2017-09-11T06:55:51.782Z,98212.41
2017-09-11T06:58:53.107Z,98211.59
2017-09-11T07:01:55.146Z,98203.66
2017-09-11T07:04:56.414Z,98200.63
2017-09-11T07:07:58.434Z,98207.30
2017-09-11T07:10:59.714Z,98198.03
2017-09-11T07:14:00.946Z,98198.11
2017-09-11T07:17:02.235Z,98203.34
2017-09-11T07:20:04.258Z,98208.19
2017-09-11T07:23:05.519Z,98214.49
2017-09-11T07:26:06.930Z,98226.25
2017-09-11T07:29:08.209Z,98225.84
2017-09-11T07:32:09.477Z,98220.19
2017-09-11T07:35:10.745Z,98228.92
2017-09-11T07:38:12.802Z,98225.58
2017-09-11T07:41:14.787Z,98228.60
2017-09-11T07:44:16.071Z,98242.64
2017-09-11T07:47:17.353Z,98244.01
2017-09-11T07:50:18.598Z,98232.94
2017-09-11T07:53:20.002Z,98243.66
2017-09-11T07:56:21.246Z,98253.47
2017-09-11T07:59:22.569Z,98244.42
2017-09-11T08:02:24.551Z,98254.98
2017-09-11T08:05:25.810Z,98249.02
2017-09-11T08:08:27.133Z,98249.66
2017-09-11T08:11:28.419Z,98244.52
2017-09-11T08:14:29.657Z,98259.88
2017-09-11T08:17:30.926Z,98266.58
2017-09-11T08:20:33.122Z,98258.54
2017-09-11T08:23:34.370Z,98263.77
2017-09-11T08:26:35.688Z,98257.63
2017-09-11T08:29:37.654Z,98256.11
2017-09-11T08:32:39.698Z,98265.12
2017-09-11T08:35:41.013Z,98274.11
2017-09-11T08:38:42.294Z,98270.91
2017-09-11T08:41:43.566Z,98273.57
2017-09-11T08:44:45.613Z,98275.81
2017-09-11T08:47:46.926Z,98272.74
2017-09-11T08:50:48.274Z,98278.43
2017-09-11T08:53:49.535Z,98280.05
2017-09-11T08:56:50.821Z,98281.14
2017-09-11T08:59:52.238Z,98285.14
2017-09-11T09:02:53.474Z,98274.12
2017-09-11T09:05:54.879Z,98274.25
2017-09-11T09:08:56.884Z,98279.68
2017-09-11T09:11:58.146Z,98276.25
2017-09-11T09:14:59.429Z,98264.58
2017-09-11T09:18:00.703Z,98279.47
2017-09-11T09:21:01.994Z,98283.33
2017-09-11T09:24:03.302Z,98279.59
2017-09-11T09:27:04.605Z,98289.08
2017-09-11T09:30:05.849Z,98272.42
2017-09-11T09:33:07.165Z,98284.33
2017-09-11T09:36:08.423Z,98290.14
2017-09-11T09:39:09.698Z,98274.05
2017-09-11T09:42:11.198Z,98269.78
2017-09-11T09:45:13.210Z,98266.95
2017-09-11T09:48:14.490Z,98266.52
2017-09-11T09:51:15.727Z,98265.52
2017-09-11T09:54:17.006Z,98269.41
2017-09-11T09:57:18.271Z,98278.29
2017-09-11T10:00:20.310Z,98276.44
2017-09-11T10:03:21.550Z,98286.73
2017-09-11T10:06:22.827Z,98277.76
2017-09-11T10:09:24.830Z,98280.57
2017-09-11T10:12:26.077Z,98291.27
2017-09-11T10:15:27.633Z,98299.72
2017-09-11T10:18:28.890Z,98299.84
2017-09-11T10:21:30.177Z,98296.26
2017-09-11T10:24:31.426Z,98292.28
2017-09-11T10:27:32.695Z,98290.91
2017-09-11T10:30:34.715Z,98282.78
2017-09-11T10:33:36.014Z,98285.64
2017-09-11T10:36:38.007Z,98285.14
2017-09-11T10:39:39.310Z,98279.05
2017-09-11T10:42:40.565Z,98286.50
2017-09-11T10:45:41.861Z,98284.85
2017-09-11T10:48:43.134Z,98283.38
2017-09-11T10:51:44.441Z,98316.37
2017-09-11T10:54:45.685Z,98333.17
2017-09-11T10:57:46.994Z,98324.06
2017-09-11T11:00:48.302Z,98315.89
2017-09-11T11:03:50.326Z,98301.48
2017-09-11T11:06:51.713Z,98299.24
2017-09-11T11:09:53.706Z,98295.42
2017-09-11T11:12:55.005Z,98318.11
2017-09-11T11:15:56.270Z,98312.09
2017-09-11T11:18:57.558Z,98304.05
2017-09-11T11:21:58.822Z,98290.48
2017-09-11T11:25:00.114Z,98305.53
2017-09-11T11:28:01.366Z,98307.84
2017-09-11T11:31:02.634Z,98303.56
2017-09-11T11:34:04.630Z,98304.36
2017-09-11T11:37:05.909Z,98303.78
2017-09-11T11:40:07.182Z,98308.96
2017-09-11T11:43:09.195Z,98313.47
2017-09-11T11:46:10.493Z,98307.20
2017-09-11T11:49:12.481Z,98308.00
2017-09-11T11:52:13.778Z,98310.15
2017-09-11T11:55:15.027Z,98305.80
2017-09-11T11:58:16.306Z,98306.82
2017-09-11T12:01:18.327Z,98309.27
2017-09-11T12:04:19.621Z,98307.09
2017-09-11T12:07:20.961Z,98306.84
2017-09-11T12:10:22.270Z,98313.75
2017-09-11T12:13:23.532Z,98309.94
2017-09-11T12:16:24.844Z,98318.17
2017-09-11T12:19:26.107Z,98310.84
2017-09-11T12:22:27.370Z,98307.31
2017-09-11T12:25:28.658Z,98309.17
2017-09-11T12:28:29.907Z,98313.89
2017-09-11T12:31:31.175Z,98319.77
2017-09-11T12:34:33.158Z,98305.34
2017-09-11T12:37:34.479Z,98302.30
2017-09-11T12:40:36.485Z,98315.30
2017-09-11T12:43:37.766Z,98322.13
2017-09-11T12:46:39.021Z,98318.72
2017-09-11T12:49:40.290Z,98324.03
2017-09-11T12:52:42.291Z,98317.02
2017-09-11T12:55:43.577Z,98315.89
2017-09-11T12:58:45.274Z,98320.95
2017-09-11T13:01:47.293Z,98310.56
2017-09-11T13:04:48.593Z,98309.38
2017-09-11T13:07:49.870Z,98312.06
2017-09-11T13:10:51.269Z,98317.70
2017-09-11T13:13:52.498Z,98316.67
2017-09-11T13:16:53.786Z,98321.70
2017-09-11T13:19:55.807Z,98327.22
2017-09-11T13:22:57.123Z,98332.55
2017-09-11T13:25:58.390Z,98336.84
2017-09-11T13:28:59.651Z,98325.27
2017-09-11T13:32:01.050Z,98318.88
2017-09-11T13:35:02.299Z,98335.31
2017-09-11T13:38:03.713Z,98330.30
2017-09-11T13:41:04.982Z,98331.36
2017-09-11T13:44:07.002Z,98336.84
2017-09-11T13:47:08.303Z,98331.52
2017-09-11T13:50:10.357Z,98330.04
2017-09-11T13:53:11.598Z,98328.86
2017-09-11T13:56:12.871Z,98332.58
2017-09-11T13:59:15.001Z,98335.86
2017-09-11T14:02:16.270Z,98334.21
2017-09-11T14:05:17.702Z,98333.27
2017-09-11T14:08:19.774Z,98332.30
2017-09-11T14:11:21.066Z,98332.39
2017-09-11T14:14:22.314Z,98345.02
2017-09-11T14:17:23.593Z,98348.04
2017-09-11T14:20:24.854Z,98342.28
2017-09-11T14:23:26.177Z,98329.84
2017-09-11T14:26:27.547Z,98341.42
2017-09-11T14:29:28.831Z,98352.86
2017-09-11T14:32:30.214Z,98338.98
2017-09-11T14:35:31.473Z,98333.55
2017-09-11T14:38:32.778Z,98333.08
2017-09-11T14:41:34.047Z,98333.48
2017-09-11T14:44:36.078Z,98326.19
2017-09-11T14:47:37.346Z,98328.00
2017-09-11T14:50:39.390Z,98336.08
2017-09-11T14:53:40.922Z,98334.08
2017-09-11T14:56:42.167Z,98334.13
2017-09-11T14:59:43.686Z,98325.52
2017-09-11T15:02:44.987Z,98331.00
2017-09-11T15:05:46.298Z,98328.44
2017-09-11T15:08:47.558Z,98324.20
2017-09-11T15:11:48.838Z,98328.24
2017-09-11T15:14:50.104Z,98335.93
2017-09-11T15:17:51.434Z,98341.06
2017-09-11T15:20:53.066Z,98331.35
2017-09-11T15:23:54.353Z,98338.11
2017-09-11T15:26:55.665Z,98337.50
2017-09-11T15:29:56.957Z,98338.97
2017-09-11T15:32:59.166Z,98343.83
2017-09-11T15:36:00.406Z,98346.69
2017-09-11T15:39:01.726Z,98348.41
2017-09-11T15:42:03.731Z,98368.03
2017-09-11T15:45:04.982Z,98354.80
2017-09-11T15:48:06.250Z,98357.19
2017-09-11T15:51:08.190Z,98360.00
2017-09-11T15:54:09.474Z,98352.97
2017-09-11T15:57:10.746Z,98363.92
2017-09-11T16:00:11.994Z,98358.25
2017-09-11T16:03:14.082Z,98367.28
2017-09-11T16:06:15.361Z,98362.86
2017-09-11T16:09:16.642Z,98367.48
2017-09-11T16:12:17.964Z,98371.94
2017-09-11T16:15:19.233Z,98385.30
2017-09-11T16:18:20.514Z,98385.48
2017-09-11T16:21:22.535Z,98392.66
2017-09-11T16:24:23.831Z,98380.64
2017-09-11T16:27:25.847Z,98379.23
2017-09-11T16:30:27.916Z,98378.48
2017-09-11T16:33:29.194Z,98385.65
2017-09-11T16:36:30.426Z,98376.60
2017-09-11T16:39:31.846Z,98380.25
2017-09-11T16:42:33.122Z,98383.73
2017-09-11T16:45:34.402Z,98398.00
2017-09-11T16:48:36.410Z,98408.83
2017-09-11T16:51:37.705Z,98421.81
2017-09-11T16:54:38.978Z,98420.09
2017-09-11T16:57:41.013Z,98421.16
2017-09-11T17:00:42.258Z,98411.27
2017-09-11T17:03:43.578Z,98416.62
2017-09-11T17:06:44.945Z,98413.45
2017-09-11T17:09:46.226Z,98409.63
2017-09-11T17:12:48.270Z,98415.97
2017-09-11T17:15:49.556Z,98409.59
2017-09-11T17:18:51.606Z,98400.27
2017-09-11T17:21:53.627Z,98409.25
2017-09-11T17:24:54.947Z,98409.08
2017-09-11T17:27:56.203Z,98406.34
2017-09-11T17:30:57.493Z,98413.97
2017-09-11T17:33:58.794Z,98400.50
2017-09-11T17:37:00.105Z,98405.14
2017-09-11T17:40:01.450Z,98413.52
2017-09-11T17:43:02.742Z,98421.56
2017-09-11T17:46:04.069Z,98421.13
2017-09-11T17:49:06.087Z,98429.86
2017-09-11T17:52:07.386Z,98421.95
2017-09-11T17:55:09.406Z,98439.48
2017-09-11T17:58:11.458Z,98437.38
2017-09-11T18:01:12.894Z,98435.83
2017-09-11T18:04:14.179Z,98442.52
2017-09-11T18:07:15.523Z,98441.43
2017-09-11T18:10:16.793Z,98442.47
2017-09-11T18:13:19.253Z,98453.94
2017-09-11T18:16:20.550Z,98460.80
2017-09-11T18:19:22.643Z,98458.28
2017-09-11T18:22:23.937Z,98469.08
2017-09-11T18:25:25.356Z,98471.15
2017-09-11T18:28:26.721Z,98482.85
2017-09-11T18:31:28.550Z,98487.41
2017-09-11T18:34:29.929Z,98497.71
2017-09-11T18:37:31.271Z,98495.78
2017-09-11T18:40:32.598Z,98490.04
2017-09-11T18:43:33.945Z,98490.95
2017-09-11T18:46:35.403Z,98491.48
2017-09-11T18:49:36.775Z,98496.19
2017-09-11T18:52:38.263Z,98501.13
2017-09-11T18:55:39.601Z,98502.54
2017-09-11T18:58:40.998Z,98490.39
2017-09-11T19:01:42.329Z,98486.95
2017-09-11T19:04:43.744Z,98490.02
2017-09-11T19:07:45.067Z,98482.00
2017-09-11T19:10:47.204Z,98482.98
2017-09-11T19:13:48.849Z,98487.57
2017-09-11T19:16:50.231Z,98492.63
2017-09-11T19:19:52.773Z,98493.34
2017-09-11T19:22:54.077Z,98495.89
2017-09-11T19:25:56.145Z,98505.69
2017-09-11T19:28:58.275Z,98492.00
2017-09-11T19:32:00.449Z,98501.02
2017-09-11T19:35:01.794Z,98493.39
2017-09-11T19:38:03.105Z,98493.15
2017-09-11T19:41:04.506Z,98493.30
2017-09-11T19:44:05.993Z,98497.58
2017-09-11T19:47:07.414Z,98506.80
2017-09-11T19:50:08.708Z,98496.27
2017-09-11T19:53:10.036Z,98495.69
2017-09-11T19:56:12.023Z,98501.89
2017-09-11T19:59:13.343Z,98509.45
2017-09-11T20:02:15.394Z,98495.67
2017-09-11T20:05:16.708Z,98505.11
2017-09-11T20:08:17.963Z,98503.44
2017-09-11T20:11:19.288Z,98514.84
2017-09-11T20:14:20.610Z,98514.93
2017-09-11T20:17:22.691Z,98521.14
2017-09-11T20:20:24.012Z,98522.33
2017-09-11T20:23:26.091Z,98526.14
2017-09-11T20:26:28.260Z,98514.32
2017-09-11T20:29:30.268Z,98526.66
2017-09-11T20:32:31.919Z,98523.00
2017-09-11T20:35:33.217Z,98519.36
2017-09-11T20:38:34.607Z,98520.16
2017-09-11T20:41:35.930Z,98522.33
2017-09-11T20:44:37.979Z,98525.25
2017-09-11T20:47:39.299Z,98533.82
2017-09-11T20:50:47.511Z,98525.64
2017-09-11T20:53:48.851Z,98526.33
2017-09-11T20:56:50.234Z,98530.94
2017-09-11T20:59:51.575Z,98533.64
2017-09-11T21:02:52.951Z,98541.36
2017-09-11T21:05:54.413Z,98544.01
2017-09-11T21:08:56.514Z,98542.79
2017-09-11T21:11:57.982Z,98549.84
2017-09-11T21:14:59.344Z,98547.61
2017-09-11T21:18:00.723Z,98547.37
2017-09-11T21:21:02.077Z,98539.51
2017-09-11T21:24:03.394Z,98538.72
2017-09-11T21:27:04.736Z,98547.13
2017-09-11T21:30:06.088Z,98548.80
2017-09-11T21:33:07.370Z,98542.69
2017-09-11T21:36:08.707Z,98549.97
2017-09-11T21:39:10.046Z,98536.13
2017-09-11T21:42:11.458Z,98557.36
2017-09-11T21:45:12.764Z,98549.50
2017-09-11T21:48:14.101Z,98554.31
2017-09-11T21:51:15.363Z,98551.75
2017-09-11T21:54:16.714Z,98560.10
2017-09-11T21:57:17.997Z,98559.86
2017-09-11T22:00:19.346Z,98561.09
2017-09-11T22:03:20.919Z,98564.93
2017-09-11T22:06:22.236Z,98566.55
2017-09-11T22:09:24.370Z,98564.06
2017-09-11T22:12:25.660Z,98561.63
2017-09-11T22:15:27.730Z,98551.64
2017-09-11T22:18:29.012Z,98555.98
2017-09-11T22:21:30.357Z,98559.13
2017-09-11T22:24:31.646Z,98563.48
2017-09-11T22:27:32.972Z,98567.48
2017-09-11T22:30:34.278Z,98563.86
2017-09-11T22:33:35.627Z,98561.52
2017-09-11T22:36:37.941Z,98559.89
2017-09-11T22:39:39.253Z,98567.64
2017-09-11T22:42:41.338Z,98564.12
2017-09-11T22:45:42.662Z,98563.81
2017-09-11T22:48:44.741Z,98563.88
2017-09-11T22:51:46.813Z,98566.25
2017-09-11T22:54:48.896Z,98548.42
2017-09-11T22:57:50.167Z,98555.80
2017-09-11T23:00:51.495Z,98570.05
2017-09-11T23:03:52.828Z,98552.50
2017-09-11T23:06:54.897Z,98552.66
2017-09-11T23:09:56.903Z,98563.27
2017-09-11T23:12:58.204Z,98559.91
2017-09-11T23:16:00.242Z,98557.72
2017-09-11T23:19:01.546Z,98567.39
2017-09-11T23:22:02.814Z,98557.98
2017-09-11T23:25:04.118Z,98554.56
2017-09-11T23:28:06.282Z,98562.56
2017-09-11T23:31:07.559Z,98564.23
2017-09-11T23:34:08.835Z,98564.99
2017-09-11T23:37:10.121Z,98572.52
2017-09-11T23:40:11.542Z,98567.05
2017-09-11T23:43:12.814Z,98569.16
2017-09-11T23:46:14.106Z,98568.03
2017-09-11T23:49:15.392Z,98569.03
2017-09-11T23:52:16.730Z,98558.22
2017-09-11T23:55:18.015Z,98570.58
2017-09-11T23:58:19.296Z,98565.90
